sensor_id;sensor_type;location;lat;lon;timestamp;temperature;humidity
64961;SHT31;51487;52.266;10.542;2024-02-14T00:01:04;7.12;81.81
64961;SHT31;51487;52.266;10.542;2024-02-14T00:03:29;7.11;81.99
64961;SHT31;51487;52.266;10.542;2024-02-14T00:05:55;7.20;81.86
64961;SHT31;51487;52.266;10.542;2024-02-14T00:08:22;7.23;81.60
64961;SHT31;51487;52.266;10.542;2024-02-14T00:10:48;7.28;81.89
64961;SHT31;51487;52.266;10.542;2024-02-14T00:13:14;7.30;82.05
64961;SHT31;51487;52.266;10.542;2024-02-14T00:15:40;7.26;82.18
64961;SHT31;51487;52.266;10.542;2024-02-14T00:18:06;7.20;82.67
64961;SHT31;51487;52.266;10.542;2024-02-14T00:20:31;7.29;83.34
64961;SHT31;51487;52.266;10.542;2024-02-14T00:22:57;7.33;83.59
64961;SHT31;51487;52.266;10.542;2024-02-14T00:25:23;7.26;83.01
64961;SHT31;51487;52.266;10.542;2024-02-14T00:27:48;7.25;82.86
64961;SHT31;51487;52.266;10.542;2024-02-14T00:30:15;7.25;83.36
64961;SHT31;51487;52.266;10.542;2024-02-14T00:32:41;7.29;83.45
64961;SHT31;51487;52.266;10.542;2024-02-14T00:35:07;7.29;84.23
64961;SHT31;51487;52.266;10.542;2024-02-14T00:37:32;7.46;84.28
64961;SHT31;51487;52.266;10.542;2024-02-14T00:39:58;7.38;83.88
64961;SHT31;51487;52.266;10.542;2024-02-14T00:42:24;7.33;83.97
64961;SHT31;51487;52.266;10.542;2024-02-14T00:44:50;7.35;83.67
64961;SHT31;51487;52.266;10.542;2024-02-14T00:47:16;7.33;84.91
64961;SHT31;51487;52.266;10.542;2024-02-14T00:49:42;7.33;85.23
64961;SHT31;51487;52.266;10.542;2024-02-14T00:52:08;7.22;83.83
64961;SHT31;51487;52.266;10.542;2024-02-14T00:54:34;7.23;83.77
64961;SHT31;51487;52.266;10.542;2024-02-14T00:57:00;7.15;83.98
64961;SHT31;51487;52.266;10.542;2024-02-14T00:59:26;7.18;83.77
64961;SHT31;51487;52.266;10.542;2024-02-14T01:01:52;7.14;84.11
64961;SHT31;51487;52.266;10.542;2024-02-14T01:04:18;7.16;84.07
64961;SHT31;51487;52.266;10.542;2024-02-14T01:06:44;7.19;84.01
64961;SHT31;51487;52.266;10.542;2024-02-14T01:09:09;7.22;83.94
64961;SHT31;51487;52.266;10.542;2024-02-14T01:11:35;7.20;83.92
64961;SHT31;51487;52.266;10.542;2024-02-14T01:14:04;7.28;83.47
64961;SHT31;51487;52.266;10.542;2024-02-14T01:16:29;7.26;83.51
64961;SHT31;51487;52.266;10.542;2024-02-14T01:18:55;7.23;83.34
64961;SHT31;51487;52.266;10.542;2024-02-14T01:21:20;7.23;83.43
64961;SHT31;51487;52.266;10.542;2024-02-14T01:23:46;7.30;83.47
64961;SHT31;51487;52.266;10.542;2024-02-14T01:26:11;7.30;83.31
64961;SHT31;51487;52.266;10.542;2024-02-14T01:28:36;7.33;83.13
64961;SHT31;51487;52.266;10.542;2024-02-14T01:31:03;7.30;83.13
64961;SHT31;51487;52.266;10.542;2024-02-14T01:33:29;7.32;83.26
64961;SHT31;51487;52.266;10.542;2024-02-14T01:35:56;7.35;83.20
64961;SHT31;51487;52.266;10.542;2024-02-14T01:38:23;7.19;83.41
64961;SHT31;51487;52.266;10.542;2024-02-14T01:40:48;7.12;83.69
64961;SHT31;51487;52.266;10.542;2024-02-14T01:43:14;7.08;84.04
64961;SHT31;51487;52.266;10.542;2024-02-14T01:45:40;6.95;84.36
64961;SHT31;51487;52.266;10.542;2024-02-14T01:48:06;6.89;84.55
64961;SHT31;51487;52.266;10.542;2024-02-14T01:50:35;6.81;84.94
64961;SHT31;51487;52.266;10.542;2024-02-14T01:53:02;6.76;85.68
64961;SHT31;51487;52.266;10.542;2024-02-14T01:55:28;6.66;85.65
64961;SHT31;51487;52.266;10.542;2024-02-14T01:57:54;6.70;85.86
64961;SHT31;51487;52.266;10.542;2024-02-14T02:00:20;6.80;85.60
64961;SHT31;51487;52.266;10.542;2024-02-14T02:02:46;6.73;85.65
64961;SHT31;51487;52.266;10.542;2024-02-14T02:05:14;6.74;85.73
64961;SHT31;51487;52.266;10.542;2024-02-14T02:07:41;6.77;85.72
64961;SHT31;51487;52.266;10.542;2024-02-14T02:10:11;6.84;85.42
64961;SHT31;51487;52.266;10.542;2024-02-14T02:12:37;6.91;85.36
64961;SHT31;51487;52.266;10.542;2024-02-14T02:15:08;6.99;85.21
64961;SHT31;51487;52.266;10.542;2024-02-14T02:17:38;6.91;85.35
64961;SHT31;51487;52.266;10.542;2024-02-14T02:20:05;6.91;85.24
64961;SHT31;51487;52.266;10.542;2024-02-14T02:22:33;6.94;85.19
64961;SHT31;51487;52.266;10.542;2024-02-14T02:25:02;7.02;85.14
64961;SHT31;51487;52.266;10.542;2024-02-14T02:27:28;7.02;85.04
64961;SHT31;51487;52.266;10.542;2024-02-14T02:29:53;7.08;84.73
64961;SHT31;51487;52.266;10.542;2024-02-14T02:32:19;7.05;85.09
64961;SHT31;51487;52.266;10.542;2024-02-14T02:34:44;7.16;84.73
64961;SHT31;51487;52.266;10.542;2024-02-14T02:37:11;7.05;84.92
64961;SHT31;51487;52.266;10.542;2024-02-14T02:39:37;7.15;84.71
64961;SHT31;51487;52.266;10.542;2024-02-14T02:42:03;7.11;84.58
64961;SHT31;51487;52.266;10.542;2024-02-14T02:44:29;7.12;84.79
64961;SHT31;51487;52.266;10.542;2024-02-14T02:46:55;7.04;85.08
64961;SHT31;51487;52.266;10.542;2024-02-14T02:49:21;7.15;84.78
64961;SHT31;51487;52.266;10.542;2024-02-14T02:51:47;7.15;84.98
64961;SHT31;51487;52.266;10.542;2024-02-14T02:54:13;7.12;85.03
64961;SHT31;51487;52.266;10.542;2024-02-14T02:56:38;7.19;84.90
64961;SHT31;51487;52.266;10.542;2024-02-14T02:59:06;7.29;84.62
64961;SHT31;51487;52.266;10.542;2024-02-14T03:01:36;7.35;84.69
64961;SHT31;51487;52.266;10.542;2024-02-14T03:04:02;7.38;84.98
64961;SHT31;51487;52.266;10.542;2024-02-14T03:06:28;7.43;85.17
64961;SHT31;51487;52.266;10.542;2024-02-14T03:08:53;7.55;85.37
64961;SHT31;51487;52.266;10.542;2024-02-14T03:11:21;7.65;85.51
64961;SHT31;51487;52.266;10.542;2024-02-14T03:13:46;7.60;86.45
64961;SHT31;51487;52.266;10.542;2024-02-14T03:16:15;7.57;87.33
64961;SHT31;51487;52.266;10.542;2024-02-14T03:18:40;7.62;87.77
64961;SHT31;51487;52.266;10.542;2024-02-14T03:21:06;7.71;87.74
64961;SHT31;51487;52.266;10.542;2024-02-14T03:23:32;7.65;88.45
64961;SHT31;51487;52.266;10.542;2024-02-14T03:25:57;7.59;88.74
64961;SHT31;51487;52.266;10.542;2024-02-14T03:28:23;7.62;89.47
64961;SHT31;51487;52.266;10.542;2024-02-14T03:30:49;7.56;89.55
64961;SHT31;51487;52.266;10.542;2024-02-14T03:33:14;7.57;89.89
64961;SHT31;51487;52.266;10.542;2024-02-14T03:35:41;7.63;89.97
64961;SHT31;51487;52.266;10.542;2024-02-14T03:38:07;7.53;90.34
64961;SHT31;51487;52.266;10.542;2024-02-14T03:40:36;7.52;90.34
64961;SHT31;51487;52.266;10.542;2024-02-14T03:43:04;7.59;91.17
64961;SHT31;51487;52.266;10.542;2024-02-14T03:45:30;7.62;91.13
64961;SHT31;51487;52.266;10.542;2024-02-14T03:47:56;7.67;90.34
64961;SHT31;51487;52.266;10.542;2024-02-14T03:50:22;7.62;90.70
64961;SHT31;51487;52.266;10.542;2024-02-14T03:52:48;7.53;91.10
64961;SHT31;51487;52.266;10.542;2024-02-14T03:55:14;7.65;90.73
64961;SHT31;51487;52.266;10.542;2024-02-14T03:57:42;7.66;90.59
64961;SHT31;51487;52.266;10.542;2024-02-14T04:00:11;7.60;91.21
64961;SHT31;51487;52.266;10.542;2024-02-14T04:02:36;7.62;91.58
64961;SHT31;51487;52.266;10.542;2024-02-14T04:05:02;7.49;92.12
64961;SHT31;51487;52.266;10.542;2024-02-14T04:07:28;7.42;92.71
64961;SHT31;51487;52.266;10.542;2024-02-14T04:09:55;7.39;92.30
64961;SHT31;51487;52.266;10.542;2024-02-14T04:12:21;7.39;92.73
64961;SHT31;51487;52.266;10.542;2024-02-14T04:14:47;7.36;93.08
64961;SHT31;51487;52.266;10.542;2024-02-14T04:17:12;7.43;92.91
64961;SHT31;51487;52.266;10.542;2024-02-14T04:19:39;7.45;92.81
64961;SHT31;51487;52.266;10.542;2024-02-14T04:22:04;7.42;93.25
64961;SHT31;51487;52.266;10.542;2024-02-14T04:24:33;7.43;93.19
64961;SHT31;51487;52.266;10.542;2024-02-14T04:27:00;7.39;93.58
64961;SHT31;51487;52.266;10.542;2024-02-14T04:29:28;7.39;93.46
64961;SHT31;51487;52.266;10.542;2024-02-14T04:31:56;7.39;93.24
64961;SHT31;51487;52.266;10.542;2024-02-14T04:34:22;7.28;93.39
64961;SHT31;51487;52.266;10.542;2024-02-14T04:36:47;7.25;93.82
64961;SHT31;51487;52.266;10.542;2024-02-14T04:39:13;7.39;94.10
64961;SHT31;51487;52.266;10.542;2024-02-14T04:41:38;7.33;93.51
64961;SHT31;51487;52.266;10.542;2024-02-14T04:44:07;7.29;93.86
64961;SHT31;51487;52.266;10.542;2024-02-14T04:46:33;7.29;93.59
64961;SHT31;51487;52.266;10.542;2024-02-14T04:49:01;7.35;93.42
64961;SHT31;51487;52.266;10.542;2024-02-14T04:51:29;7.47;92.91
64961;SHT31;51487;52.266;10.542;2024-02-14T04:53:55;7.49;93.12
64961;SHT31;51487;52.266;10.542;2024-02-14T04:56:25;7.52;93.09
64961;SHT31;51487;52.266;10.542;2024-02-14T04:58:55;7.52;92.87
64961;SHT31;51487;52.266;10.542;2024-02-14T05:01:21;7.63;91.71
64961;SHT31;51487;52.266;10.542;2024-02-14T05:03:47;7.67;91.52
64961;SHT31;51487;52.266;10.542;2024-02-14T05:06:14;7.67;91.51
64961;SHT31;51487;52.266;10.542;2024-02-14T05:08:39;7.69;91.17
64961;SHT31;51487;52.266;10.542;2024-02-14T05:11:05;7.83;90.99
64961;SHT31;51487;52.266;10.542;2024-02-14T05:13:30;7.83;90.72
64961;SHT31;51487;52.266;10.542;2024-02-14T05:15:56;7.76;91.41
64961;SHT31;51487;52.266;10.542;2024-02-14T05:18:22;7.80;91.28
64961;SHT31;51487;52.266;10.542;2024-02-14T05:20:48;7.84;91.40
64961;SHT31;51487;52.266;10.542;2024-02-14T05:23:14;7.97;91.09
64961;SHT31;51487;52.266;10.542;2024-02-14T05:25:43;8.01;91.38
64961;SHT31;51487;52.266;10.542;2024-02-14T05:28:08;8.02;91.65
64961;SHT31;51487;52.266;10.542;2024-02-14T05:30:39;7.98;91.37
64961;SHT31;51487;52.266;10.542;2024-02-14T05:33:05;8.01;91.55
64961;SHT31;51487;52.266;10.542;2024-02-14T05:35:30;7.90;91.92
64961;SHT31;51487;52.266;10.542;2024-02-14T05:37:56;7.91;91.78
64961;SHT31;51487;52.266;10.542;2024-02-14T05:40:21;7.86;92.29
64961;SHT31;51487;52.266;10.542;2024-02-14T05:42:47;7.90;92.21
64961;SHT31;51487;52.266;10.542;2024-02-14T05:45:13;7.95;92.10
64961;SHT31;51487;52.266;10.542;2024-02-14T05:47:38;7.98;92.49
64961;SHT31;51487;52.266;10.542;2024-02-14T05:50:05;8.02;92.48
64961;SHT31;51487;52.266;10.542;2024-02-14T05:52:32;7.90;93.39
64961;SHT31;51487;52.266;10.542;2024-02-14T05:54:58;7.98;92.92
64961;SHT31;51487;52.266;10.542;2024-02-14T05:57:23;8.05;93.20
64961;SHT31;51487;52.266;10.542;2024-02-14T05:59:49;8.12;92.98
64961;SHT31;51487;52.266;10.542;2024-02-14T06:02:14;8.18;92.76
64961;SHT31;51487;52.266;10.542;2024-02-14T06:04:40;8.07;93.13
64961;SHT31;51487;52.266;10.542;2024-02-14T06:07:06;7.98;93.53
64961;SHT31;51487;52.266;10.542;2024-02-14T06:09:35;7.93;92.71
64961;SHT31;51487;52.266;10.542;2024-02-14T06:12:01;7.91;93.19
64961;SHT31;51487;52.266;10.542;2024-02-14T06:14:26;7.99;92.58
64961;SHT31;51487;52.266;10.542;2024-02-14T06:16:52;8.02;92.64
64961;SHT31;51487;52.266;10.542;2024-02-14T06:19:17;8.01;92.43
64961;SHT31;51487;52.266;10.542;2024-02-14T06:21:43;7.99;92.46
64961;SHT31;51487;52.266;10.542;2024-02-14T06:24:08;8.11;91.82
64961;SHT31;51487;52.266;10.542;2024-02-14T06:26:35;8.05;91.98
64961;SHT31;51487;52.266;10.542;2024-02-14T06:29:01;8.07;91.95
64961;SHT31;51487;52.266;10.542;2024-02-14T06:31:27;8.08;92.72
64961;SHT31;51487;52.266;10.542;2024-02-14T06:33:53;8.04;92.58
64961;SHT31;51487;52.266;10.542;2024-02-14T06:36:18;8.11;92.29
64961;SHT31;51487;52.266;10.542;2024-02-14T06:38:44;8.07;92.34
64961;SHT31;51487;52.266;10.542;2024-02-14T06:41:12;8.05;92.44
64961;SHT31;51487;52.266;10.542;2024-02-14T06:43:37;8.09;92.31
64961;SHT31;51487;52.266;10.542;2024-02-14T06:46:05;8.12;92.18
64961;SHT31;51487;52.266;10.542;2024-02-14T06:48:31;8.17;91.84
64961;SHT31;51487;52.266;10.542;2024-02-14T06:50:57;8.21;91.34
64961;SHT31;51487;52.266;10.542;2024-02-14T06:53:22;8.24;91.46
64961;SHT31;51487;52.266;10.542;2024-02-14T06:55:48;8.14;91.77
64961;SHT31;51487;52.266;10.542;2024-02-14T06:58:14;8.22;91.37
64961;SHT31;51487;52.266;10.542;2024-02-14T07:00:39;8.21;91.99
64961;SHT31;51487;52.266;10.542;2024-02-14T07:03:05;8.28;92.03
64961;SHT31;51487;52.266;10.542;2024-02-14T07:05:30;8.24;91.87
64961;SHT31;51487;52.266;10.542;2024-02-14T07:07:56;8.09;92.68
64961;SHT31;51487;52.266;10.542;2024-02-14T07:10:22;8.14;92.53
64961;SHT31;51487;52.266;10.542;2024-02-14T07:12:48;8.14;92.66
64961;SHT31;51487;52.266;10.542;2024-02-14T07:15:13;8.17;92.80
64961;SHT31;51487;52.266;10.542;2024-02-14T07:17:39;8.32;92.66
64961;SHT31;51487;52.266;10.542;2024-02-14T07:20:06;8.38;92.48
64961;SHT31;51487;52.266;10.542;2024-02-14T07:22:35;8.32;92.24
64961;SHT31;51487;52.266;10.542;2024-02-14T07:25:00;8.20;93.08
64961;SHT31;51487;52.266;10.542;2024-02-14T07:27:26;8.21;93.59
64961;SHT31;51487;52.266;10.542;2024-02-14T07:29:52;8.25;93.75
64961;SHT31;51487;52.266;10.542;2024-02-14T07:32:18;8.31;93.83
64961;SHT31;51487;52.266;10.542;2024-02-14T07:34:44;8.36;93.76
64961;SHT31;51487;52.266;10.542;2024-02-14T07:37:09;8.26;93.70
64961;SHT31;51487;52.266;10.542;2024-02-14T07:39:35;8.20;93.78
64961;SHT31;51487;52.266;10.542;2024-02-14T07:42:02;8.15;94.10
64961;SHT31;51487;52.266;10.542;2024-02-14T07:44:27;8.24;94.27
64961;SHT31;51487;52.266;10.542;2024-02-14T07:46:53;8.22;94.24
64961;SHT31;51487;52.266;10.542;2024-02-14T07:49:18;8.20;94.14
64961;SHT31;51487;52.266;10.542;2024-02-14T07:51:46;8.32;93.72
64961;SHT31;51487;52.266;10.542;2024-02-14T07:54:13;8.22;94.04
64961;SHT31;51487;52.266;10.542;2024-02-14T07:56:39;8.24;93.90
64961;SHT31;51487;52.266;10.542;2024-02-14T07:59:04;8.28;94.28
64961;SHT31;51487;52.266;10.542;2024-02-14T08:01:31;8.29;94.35
64961;SHT31;51487;52.266;10.542;2024-02-14T08:03:58;8.21;94.71
64961;SHT31;51487;52.266;10.542;2024-02-14T08:06:24;8.29;94.48
64961;SHT31;51487;52.266;10.542;2024-02-14T08:08:49;8.21;94.87
64961;SHT31;51487;52.266;10.542;2024-02-14T08:11:19;8.15;94.97
64961;SHT31;51487;52.266;10.542;2024-02-14T08:13:45;8.21;95.12
64961;SHT31;51487;52.266;10.542;2024-02-14T08:16:11;8.28;95.22
64961;SHT31;51487;52.266;10.542;2024-02-14T08:18:37;8.31;94.77
64961;SHT31;51487;52.266;10.542;2024-02-14T08:21:04;8.31;94.75
64961;SHT31;51487;52.266;10.542;2024-02-14T08:23:31;8.25;95.27
64961;SHT31;51487;52.266;10.542;2024-02-14T08:25:57;8.26;95.50
64961;SHT31;51487;52.266;10.542;2024-02-14T08:28:23;8.38;95.25
64961;SHT31;51487;52.266;10.542;2024-02-14T08:30:48;8.39;95.53
64961;SHT31;51487;52.266;10.542;2024-02-14T08:33:14;8.50;95.11
64961;SHT31;51487;52.266;10.542;2024-02-14T08:35:39;8.45;95.56
64961;SHT31;51487;52.266;10.542;2024-02-14T08:38:05;8.42;95.30
64961;SHT31;51487;52.266;10.542;2024-02-14T08:40:32;8.57;95.28
64961;SHT31;51487;52.266;10.542;2024-02-14T08:42:57;8.56;95.01
64961;SHT31;51487;52.266;10.542;2024-02-14T08:45:24;8.60;94.81
64961;SHT31;51487;52.266;10.542;2024-02-14T08:47:50;8.53;94.77
64961;SHT31;51487;52.266;10.542;2024-02-14T08:50:16;8.56;94.98
64961;SHT31;51487;52.266;10.542;2024-02-14T08:52:42;8.60;94.98
64961;SHT31;51487;52.266;10.542;2024-02-14T08:55:08;8.57;95.31
64961;SHT31;51487;52.266;10.542;2024-02-14T08:57:41;8.55;95.55
64961;SHT31;51487;52.266;10.542;2024-02-14T09:00:07;8.60;95.30
64961;SHT31;51487;52.266;10.542;2024-02-14T09:02:33;8.66;95.00
64961;SHT31;51487;52.266;10.542;2024-02-14T09:05:00;8.65;94.87
64961;SHT31;51487;52.266;10.542;2024-02-14T09:07:26;8.75;94.72
64961;SHT31;51487;52.266;10.542;2024-02-14T09:09:52;8.49;95.31
64961;SHT31;51487;52.266;10.542;2024-02-14T09:12:18;8.57;95.53
64961;SHT31;51487;52.266;10.542;2024-02-14T09:14:43;8.63;95.30
64961;SHT31;51487;52.266;10.542;2024-02-14T09:17:09;8.76;94.96
64961;SHT31;51487;52.266;10.542;2024-02-14T09:19:35;8.70;94.91
64961;SHT31;51487;52.266;10.542;2024-02-14T09:22:02;8.75;94.84
64961;SHT31;51487;52.266;10.542;2024-02-14T09:24:32;8.77;95.05
64961;SHT31;51487;52.266;10.542;2024-02-14T09:26:57;8.81;94.86
64961;SHT31;51487;52.266;10.542;2024-02-14T09:29:24;8.72;95.22
64961;SHT31;51487;52.266;10.542;2024-02-14T09:31:51;8.81;95.46
64961;SHT31;51487;52.266;10.542;2024-02-14T09:34:17;8.75;95.64
64961;SHT31;51487;52.266;10.542;2024-02-14T09:36:44;8.80;95.75
64961;SHT31;51487;52.266;10.542;2024-02-14T09:39:10;8.80;95.15
64961;SHT31;51487;52.266;10.542;2024-02-14T09:41:41;8.94;95.14
64961;SHT31;51487;52.266;10.542;2024-02-14T09:44:08;8.83;95.55
64961;SHT31;51487;52.266;10.542;2024-02-14T09:46:36;8.87;95.72
64961;SHT31;51487;52.266;10.542;2024-02-14T09:49:06;8.86;95.63
64961;SHT31;51487;52.266;10.542;2024-02-14T09:51:32;8.86;95.65
64961;SHT31;51487;52.266;10.542;2024-02-14T09:54:00;9.06;95.55
64961;SHT31;51487;52.266;10.542;2024-02-14T09:56:29;9.24;95.08
64961;SHT31;51487;52.266;10.542;2024-02-14T09:58:56;9.27;95.19
64961;SHT31;51487;52.266;10.542;2024-02-14T10:01:24;9.46;94.84
64961;SHT31;51487;52.266;10.542;2024-02-14T10:03:56;9.44;94.68
64961;SHT31;51487;52.266;10.542;2024-02-14T10:06:22;9.76;94.03
64961;SHT31;51487;52.266;10.542;2024-02-14T10:08:49;9.68;94.01
64961;SHT31;51487;52.266;10.542;2024-02-14T10:11:17;9.71;94.07
64961;SHT31;51487;52.266;10.542;2024-02-14T10:13:47;9.83;93.70
64961;SHT31;51487;52.266;10.542;2024-02-14T10:16:14;9.72;93.84
64961;SHT31;51487;52.266;10.542;2024-02-14T10:18:40;9.69;93.87
64961;SHT31;51487;52.266;10.542;2024-02-14T10:21:06;9.82;93.54
64961;SHT31;51487;52.266;10.542;2024-02-14T10:23:31;9.93;93.13
64961;SHT31;51487;52.266;10.542;2024-02-14T10:25:58;9.97;93.45
64961;SHT31;51487;52.266;10.542;2024-02-14T10:28:24;9.87;93.35
64961;SHT31;51487;52.266;10.542;2024-02-14T10:30:50;9.82;93.44
64961;SHT31;51487;52.266;10.542;2024-02-14T10:33:17;9.81;93.50
64961;SHT31;51487;52.266;10.542;2024-02-14T10:35:43;9.78;94.17
64961;SHT31;51487;52.266;10.542;2024-02-14T10:38:11;9.90;93.65
64961;SHT31;51487;52.266;10.542;2024-02-14T10:40:37;9.87;93.45
64961;SHT31;51487;52.266;10.542;2024-02-14T10:43:06;9.79;93.51
64961;SHT31;51487;52.266;10.542;2024-02-14T10:45:32;9.82;93.55
64961;SHT31;51487;52.266;10.542;2024-02-14T10:48:00;9.96;93.62
64961;SHT31;51487;52.266;10.542;2024-02-14T10:50:28;10.14;92.58
64961;SHT31;51487;52.266;10.542;2024-02-14T10:52:59;10.23;92.44
64961;SHT31;51487;52.266;10.542;2024-02-14T10:55:30;10.47;92.54
64961;SHT31;51487;52.266;10.542;2024-02-14T10:57:57;10.54;92.10
64961;SHT31;51487;52.266;10.542;2024-02-14T11:00:23;10.57;91.94
64961;SHT31;51487;52.266;10.542;2024-02-14T11:02:50;10.53;92.68
64961;SHT31;51487;52.266;10.542;2024-02-14T11:05:20;10.50;92.36
64961;SHT31;51487;52.266;10.542;2024-02-14T11:07:49;10.53;92.17
64961;SHT31;51487;52.266;10.542;2024-02-14T11:10:20;10.48;92.28
64961;SHT31;51487;52.266;10.542;2024-02-14T11:12:48;10.69;92.11
64961;SHT31;51487;52.266;10.542;2024-02-14T11:15:23;10.89;91.57
64961;SHT31;51487;52.266;10.542;2024-02-14T11:18:05;10.98;90.92
64961;SHT31;51487;52.266;10.542;2024-02-14T11:20:39;11.16;91.26
64961;SHT31;51487;52.266;10.542;2024-02-14T11:23:07;11.20;90.48
64961;SHT31;51487;52.266;10.542;2024-02-14T11:25:37;11.27;90.13
64961;SHT31;51487;52.266;10.542;2024-02-14T11:28:18;11.43;90.55
64961;SHT31;51487;52.266;10.542;2024-02-14T11:30:46;11.54;89.96
64961;SHT31;51487;52.266;10.542;2024-02-14T11:33:20;11.69;89.92
64961;SHT31;51487;52.266;10.542;2024-02-14T11:35:51;11.69;89.78
64961;SHT31;51487;52.266;10.542;2024-02-14T11:38:19;11.64;89.07
64961;SHT31;51487;52.266;10.542;2024-02-14T11:40:45;11.53;89.27
64961;SHT31;51487;52.266;10.542;2024-02-14T11:43:17;11.78;89.95
64961;SHT31;51487;52.266;10.542;2024-02-14T11:45:44;11.82;89.56
64961;SHT31;51487;52.266;10.542;2024-02-14T11:48:16;11.84;89.68
64961;SHT31;51487;52.266;10.542;2024-02-14T11:50:46;11.84;89.20
64961;SHT31;51487;52.266;10.542;2024-02-14T11:53:14;11.66;88.93
64961;SHT31;51487;52.266;10.542;2024-02-14T11:55:42;11.74;89.51
64961;SHT31;51487;52.266;10.542;2024-02-14T11:58:11;11.60;89.01
64961;SHT31;51487;52.266;10.542;2024-02-14T12:00:41;11.49;89.18
64961;SHT31;51487;52.266;10.542;2024-02-14T12:03:11;11.47;89.99
64961;SHT31;51487;52.266;10.542;2024-02-14T12:05:37;11.66;89.52
64961;SHT31;51487;52.266;10.542;2024-02-14T12:08:06;11.70;89.43
64961;SHT31;51487;52.266;10.542;2024-02-14T12:10:32;11.92;89.04
64961;SHT31;51487;52.266;10.542;2024-02-14T12:13:06;12.14;88.95
64961;SHT31;51487;52.266;10.542;2024-02-14T12:15:40;11.97;88.98
64961;SHT31;51487;52.266;10.542;2024-02-14T12:18:08;11.98;89.03
64961;SHT31;51487;52.266;10.542;2024-02-14T12:20:34;12.02;88.69
64961;SHT31;51487;52.266;10.542;2024-02-14T12:23:01;11.91;88.15
64961;SHT31;51487;52.266;10.542;2024-02-14T12:25:27;11.87;89.13
64961;SHT31;51487;52.266;10.542;2024-02-14T12:27:53;11.87;88.88
64961;SHT31;51487;52.266;10.542;2024-02-14T12:30:18;11.92;89.02
64961;SHT31;51487;52.266;10.542;2024-02-14T12:32:58;11.88;88.86
64961;SHT31;51487;52.266;10.542;2024-02-14T12:35:24;11.85;88.54
64961;SHT31;51487;52.266;10.542;2024-02-14T12:37:50;11.61;89.54
64961;SHT31;51487;52.266;10.542;2024-02-14T12:40:16;11.63;89.87
64961;SHT31;51487;52.266;10.542;2024-02-14T12:42:41;11.71;90.23
64961;SHT31;51487;52.266;10.542;2024-02-14T12:45:07;11.78;89.36
64961;SHT31;51487;52.266;10.542;2024-02-14T12:47:34;11.73;89.99
64961;SHT31;51487;52.266;10.542;2024-02-14T12:50:00;11.71;89.75
64961;SHT31;51487;52.266;10.542;2024-02-14T12:52:26;11.87;89.52
64961;SHT31;51487;52.266;10.542;2024-02-14T12:54:51;11.85;89.80
64961;SHT31;51487;52.266;10.542;2024-02-14T12:57:17;11.71;90.24
64961;SHT31;51487;52.266;10.542;2024-02-14T12:59:44;11.82;89.82
64961;SHT31;51487;52.266;10.542;2024-02-14T13:02:11;11.84;89.70
64961;SHT31;51487;52.266;10.542;2024-02-14T13:04:36;11.88;89.95
64961;SHT31;51487;52.266;10.542;2024-02-14T13:07:02;11.91;89.63
64961;SHT31;51487;52.266;10.542;2024-02-14T13:09:28;11.97;89.65
64961;SHT31;51487;52.266;10.542;2024-02-14T13:11:53;11.91;89.71
64961;SHT31;51487;52.266;10.542;2024-02-14T13:14:19;11.82;90.12
64961;SHT31;51487;52.266;10.542;2024-02-14T13:16:44;13.42;92.61
64961;SHT31;51487;52.266;10.542;2024-02-14T13:19:10;14.17;86.23
64961;SHT31;51487;52.266;10.542;2024-02-14T13:21:36;13.65;84.48
64961;SHT31;51487;52.266;10.542;2024-02-14T13:24:01;13.31;85.37
64961;SHT31;51487;52.266;10.542;2024-02-14T13:26:29;13.00;86.91
64961;SHT31;51487;52.266;10.542;2024-02-14T13:28:54;12.86;87.23
64961;SHT31;51487;52.266;10.542;2024-02-14T13:31:20;12.63;87.85
64961;SHT31;51487;52.266;10.542;2024-02-14T13:33:46;12.33;88.53
64961;SHT31;51487;52.266;10.542;2024-02-14T13:36:12;12.42;88.54
64961;SHT31;51487;52.266;10.542;2024-02-14T13:38:42;12.38;88.60
64961;SHT31;51487;52.266;10.542;2024-02-14T13:41:09;12.39;88.54
64961;SHT31;51487;52.266;10.542;2024-02-14T13:43:34;12.40;88.89
64961;SHT31;51487;52.266;10.542;2024-02-14T13:46:00;12.21;89.42
64961;SHT31;51487;52.266;10.542;2024-02-14T13:48:26;12.11;89.87
64961;SHT31;51487;52.266;10.542;2024-02-14T13:50:51;11.97;90.12
64961;SHT31;51487;52.266;10.542;2024-02-14T13:53:17;11.85;90.59
64961;SHT31;51487;52.266;10.542;2024-02-14T13:55:42;11.95;90.79
64961;SHT31;51487;52.266;10.542;2024-02-14T13:58:08;11.91;91.08
64961;SHT31;51487;52.266;10.542;2024-02-14T14:00:39;11.88;90.95
64961;SHT31;51487;52.266;10.542;2024-02-14T14:03:05;11.81;90.90
64961;SHT31;51487;52.266;10.542;2024-02-14T14:05:30;11.70;90.94
64961;SHT31;51487;52.266;10.542;2024-02-14T14:07:56;11.77;91.14
64961;SHT31;51487;52.266;10.542;2024-02-14T14:10:23;11.64;91.01
64961;SHT31;51487;52.266;10.542;2024-02-14T14:12:50;11.66;90.56
64961;SHT31;51487;52.266;10.542;2024-02-14T14:15:16;11.67;91.09
64961;SHT31;51487;52.266;10.542;2024-02-14T14:17:41;11.59;91.21
64961;SHT31;51487;52.266;10.542;2024-02-14T14:20:07;11.60;90.38
64961;SHT31;51487;52.266;10.542;2024-02-14T14:22:33;11.61;90.71
64961;SHT31;51487;52.266;10.542;2024-02-14T14:24:59;11.53;90.64
64961;SHT31;51487;52.266;10.542;2024-02-14T14:27:24;11.60;90.62
64961;SHT31;51487;52.266;10.542;2024-02-14T14:29:50;11.51;90.58
64961;SHT31;51487;52.266;10.542;2024-02-14T14:32:15;11.51;90.76
64961;SHT31;51487;52.266;10.542;2024-02-14T14:34:42;11.53;90.76
64961;SHT31;51487;52.266;10.542;2024-02-14T14:37:07;11.57;90.79
64961;SHT31;51487;52.266;10.542;2024-02-14T14:39:33;11.61;90.52
64961;SHT31;51487;52.266;10.542;2024-02-14T14:41:58;11.56;90.11
64961;SHT31;51487;52.266;10.542;2024-02-14T14:44:25;11.66;90.36
64961;SHT31;51487;52.266;10.542;2024-02-14T14:46:51;11.41;90.79
64961;SHT31;51487;52.266;10.542;2024-02-14T14:49:16;11.49;90.60
64961;SHT31;51487;52.266;10.542;2024-02-14T14:51:42;11.60;90.36
64961;SHT31;51487;52.266;10.542;2024-02-14T14:54:09;11.64;90.69
64961;SHT31;51487;52.266;10.542;2024-02-14T14:56:34;11.50;91.04
64961;SHT31;51487;52.266;10.542;2024-02-14T14:59:00;11.50;90.87
64961;SHT31;51487;52.266;10.542;2024-02-14T15:01:32;11.41;91.09
64961;SHT31;51487;52.266;10.542;2024-02-14T15:03:59;11.40;91.22
64961;SHT31;51487;52.266;10.542;2024-02-14T15:06:25;11.47;91.30
64961;SHT31;51487;52.266;10.542;2024-02-14T15:08:51;11.43;91.32
64961;SHT31;51487;52.266;10.542;2024-02-14T15:11:17;11.37;91.56
64961;SHT31;51487;52.266;10.542;2024-02-14T15:13:44;11.34;91.66
64961;SHT31;51487;52.266;10.542;2024-02-14T15:16:11;11.27;91.71
64961;SHT31;51487;52.266;10.542;2024-02-14T15:18:38;11.34;91.74
64961;SHT31;51487;52.266;10.542;2024-02-14T15:21:04;11.30;91.53
64961;SHT31;51487;52.266;10.542;2024-02-14T15:23:30;11.51;91.24